createdAt,value
2023-09-06T00:00:38.745Z,23.05
2023-09-06T00:03:07.967Z,23.19
2023-09-06T00:05:35.588Z,23.38
2023-09-06T00:08:03.492Z,23.54
2023-09-06T00:10:31.416Z,23.35
2023-09-06T00:12:59.051Z,23.53
2023-09-06T00:15:26.976Z,23.71
2023-09-06T00:17:54.601Z,23.96
2023-09-06T00:20:23.852Z,23.95
2023-09-06T00:22:55.953Z,23.95
2023-09-06T00:25:25.001Z,24.00
2023-09-06T00:27:52.989Z,23.79
2023-09-06T00:30:20.870Z,23.71
2023-09-06T00:32:49.765Z,23.86
2023-09-06T00:35:17.665Z,23.73
2023-09-06T00:37:46.651Z,23.74
2023-09-06T00:40:14.675Z,23.98
2023-09-06T00:42:42.321Z,24.10
2023-09-06T00:45:10.338Z,24.36
2023-09-06T00:47:38.461Z,23.85
2023-09-06T00:50:07.901Z,23.40
2023-09-06T00:52:35.544Z,23.19
2023-09-06T00:55:04.944Z,22.99
2023-09-06T00:57:35.132Z,22.80
2023-09-06T01:00:04.014Z,22.55
2023-09-06T01:02:31.720Z,22.45
2023-09-06T01:04:59.577Z,22.37
2023-09-06T01:07:32.485Z,22.39
2023-09-06T01:12:29.358Z,22.33
2023-09-06T01:14:57.180Z,22.34
2023-09-06T01:20:08.925Z,22.35
2023-09-06T01:22:45.103Z,22.45
2023-09-06T01:25:15.878Z,22.25
2023-09-06T01:27:44.605Z,22.23
2023-09-06T01:30:12.937Z,22.31
2023-09-06T01:35:08.886Z,22.38
2023-09-06T01:37:36.541Z,22.51
2023-09-06T01:40:05.170Z,22.50
2023-09-06T01:42:34.542Z,22.52
2023-09-06T01:45:02.481Z,22.68
2023-09-06T01:47:30.351Z,22.75
2023-09-06T01:49:57.970Z,23.05
2023-09-06T01:52:25.580Z,23.40
2023-09-06T01:54:54.048Z,23.82
2023-09-06T01:57:21.685Z,23.81
2023-09-06T01:59:50.794Z,23.97
2023-09-06T02:02:19.432Z,23.34
2023-09-06T02:04:47.271Z,23.26
2023-09-06T02:07:14.966Z,23.01
2023-09-06T02:09:44.044Z,23.44
2023-09-06T02:12:11.914Z,23.37
2023-09-06T02:14:39.501Z,23.35
2023-09-06T02:17:08.582Z,23.55
2023-09-06T02:19:36.481Z,23.40
2023-09-06T02:22:04.448Z,23.66
2023-09-06T02:24:32.047Z,23.88
2023-09-06T02:26:59.720Z,24.03
2023-09-06T02:29:27.334Z,23.75
2023-09-06T02:31:55.016Z,23.93
2023-09-06T02:34:24.008Z,23.59
2023-09-06T02:36:51.671Z,23.63
2023-09-06T02:39:19.290Z,23.18
2023-09-06T02:41:46.898Z,23.08
2023-09-06T02:44:14.506Z,22.86
2023-09-06T02:46:42.171Z,22.98
2023-09-06T02:49:10.256Z,22.78
2023-09-06T02:51:39.859Z,22.50
2023-09-06T02:54:07.491Z,23.04
2023-09-06T02:56:35.132Z,22.68
2023-09-06T02:59:02.718Z,22.38
2023-09-06T03:01:30.932Z,22.18
2023-09-06T03:03:58.609Z,21.98
2023-09-06T03:06:26.308Z,21.82
2023-09-06T03:08:55.261Z,21.80
2023-09-06T03:11:22.864Z,21.61
2023-09-06T03:13:50.444Z,21.52
2023-09-06T03:16:18.132Z,21.41
2023-09-06T03:18:45.920Z,21.37
2023-09-06T03:21:13.579Z,21.39
2023-09-06T03:23:41.243Z,21.41
2023-09-06T03:26:10.187Z,21.33
2023-09-06T03:28:37.903Z,21.43
2023-09-06T03:31:05.560Z,21.72
2023-09-06T03:33:33.242Z,21.69
2023-09-06T03:36:00.976Z,21.72
2023-09-06T03:38:29.354Z,21.58
2023-09-06T03:40:58.601Z,21.81
2023-09-06T03:43:27.696Z,21.90
2023-09-06T03:45:55.307Z,21.74
2023-09-06T03:48:23.097Z,21.56
2023-09-06T03:50:52.781Z,21.48
2023-09-06T03:53:20.665Z,21.38
2023-09-06T03:55:50.657Z,21.31
2023-09-06T03:58:18.538Z,21.28
2023-09-06T04:00:47.554Z,21.29
2023-09-06T04:03:18.587Z,21.15
2023-09-06T04:05:46.848Z,21.20
2023-09-06T04:08:14.584Z,21.17
2023-09-06T04:10:42.234Z,21.21
2023-09-06T04:13:12.159Z,21.27
2023-09-06T04:15:41.685Z,21.27
2023-09-06T04:18:12.639Z,21.20
2023-09-06T04:20:41.449Z,21.13
2023-09-06T04:23:10.741Z,21.19
2023-09-06T04:25:38.635Z,21.10
2023-09-06T04:28:06.601Z,21.06
2023-09-06T04:30:37.766Z,21.00
2023-09-06T04:33:06.543Z,21.08
2023-09-06T04:35:39.167Z,20.99
2023-09-06T04:38:06.858Z,20.97
2023-09-06T04:40:34.524Z,20.92
2023-09-06T04:43:02.201Z,20.92
2023-09-06T04:45:29.795Z,20.95
2023-09-06T04:47:57.470Z,21.02
2023-09-06T04:50:25.643Z,21.14
2023-09-06T04:52:54.677Z,21.13
2023-09-06T04:55:22.314Z,21.23
2023-09-06T04:57:50.114Z,21.12
2023-09-06T05:00:17.882Z,21.19
2023-09-06T05:02:47.195Z,21.30
2023-09-06T05:05:16.740Z,21.39
2023-09-06T05:07:44.830Z,21.31
2023-09-06T05:10:14.650Z,21.55
2023-09-06T05:12:42.894Z,21.52
2023-09-06T05:15:10.701Z,21.55
2023-09-06T05:17:38.375Z,21.50
2023-09-06T05:20:28.632Z,21.53
2023-09-06T05:22:58.526Z,21.47
2023-09-06T05:25:28.018Z,21.38
2023-09-06T05:27:59.244Z,21.37
2023-09-06T05:30:28.038Z,21.40
2023-09-06T05:32:56.838Z,21.54
2023-09-06T05:35:24.592Z,21.58
2023-09-06T05:37:52.726Z,21.52
2023-09-06T05:40:20.901Z,21.37
2023-09-06T05:42:49.953Z,21.46
2023-09-06T05:45:19.377Z,21.58
2023-09-06T05:47:47.161Z,21.45
2023-09-06T05:50:15.448Z,21.57
2023-09-06T05:52:43.337Z,21.54
2023-09-06T05:55:11.361Z,21.63
2023-09-06T05:57:39.823Z,21.85
2023-09-06T06:00:10.179Z,21.96
2023-09-06T06:02:38.008Z,22.11
2023-09-06T06:05:06.537Z,22.08
2023-09-06T06:07:34.320Z,22.48
2023-09-06T06:10:02.001Z,22.23
2023-09-06T06:12:29.717Z,22.93
2023-09-06T06:14:57.327Z,23.10
2023-09-06T06:17:26.268Z,23.12
2023-09-06T06:19:53.889Z,23.51
2023-09-06T06:22:21.537Z,23.59
2023-09-06T06:24:49.255Z,23.40
2023-09-06T06:27:17.227Z,23.61
2023-09-06T06:29:45.079Z,23.52
2023-09-06T06:32:12.826Z,22.98
2023-09-06T06:34:41.894Z,22.96
2023-09-06T06:37:09.549Z,23.66
2023-09-06T06:39:37.124Z,24.00
2023-09-06T06:42:05.000Z,24.00
2023-09-06T06:44:32.850Z,24.58
2023-09-06T06:47:00.698Z,26.07
2023-09-06T06:49:28.388Z,25.36
2023-09-06T06:51:57.617Z,26.12
2023-09-06T06:54:25.325Z,25.58
2023-09-06T06:56:52.928Z,25.36
2023-09-06T06:59:20.674Z,26.56
2023-09-06T07:01:48.761Z,26.65
2023-09-06T07:04:16.473Z,26.97
2023-09-06T07:06:44.067Z,27.34
2023-09-06T07:09:13.066Z,27.94
2023-09-06T07:11:41.041Z,28.22
2023-09-06T07:14:08.841Z,28.28
2023-09-06T07:16:36.693Z,27.29
2023-09-06T07:19:04.442Z,27.61
2023-09-06T07:21:32.597Z,28.15
2023-09-06T07:24:00.188Z,28.64
2023-09-06T07:26:29.477Z,28.20
2023-09-06T07:28:57.172Z,28.46
2023-09-06T07:31:24.841Z,27.70
2023-09-06T07:33:52.762Z,26.99
2023-09-06T07:36:20.767Z,27.22
2023-09-06T07:38:49.078Z,28.60
2023-09-06T07:41:19.103Z,28.03
2023-09-06T07:43:48.350Z,28.70
2023-09-06T07:46:15.988Z,29.48
2023-09-06T07:48:44.145Z,28.41
2023-09-06T07:51:12.146Z,29.34
2023-09-06T07:53:39.860Z,29.52
2023-09-06T07:56:07.588Z,29.55
2023-09-06T07:58:36.143Z,28.73
2023-09-06T08:01:18.178Z,29.05
2023-09-06T08:03:47.347Z,26.92
2023-09-06T08:06:16.198Z,26.75
2023-09-06T08:08:44.208Z,27.49
2023-09-06T08:11:12.285Z,27.54
2023-09-06T08:13:39.959Z,27.16
2023-09-06T08:16:10.301Z,27.02
2023-09-06T08:18:40.480Z,26.91
2023-09-06T08:21:08.257Z,26.67
2023-09-06T08:23:35.918Z,26.20
2023-09-06T08:26:03.772Z,25.41
2023-09-06T08:28:31.909Z,25.59
2023-09-06T08:30:59.775Z,26.89
2023-09-06T08:33:29.237Z,27.55
2023-09-06T08:35:56.895Z,28.18
2023-09-06T08:38:24.870Z,28.05
2023-09-06T08:40:52.515Z,28.86
2023-09-06T08:43:20.790Z,29.23
2023-09-06T08:45:50.008Z,29.05
2023-09-06T08:48:18.798Z,29.10
2023-09-06T08:50:50.567Z,28.43
2023-09-06T08:53:19.976Z,27.13
2023-09-06T08:55:48.580Z,27.26
2023-09-06T08:58:16.505Z,29.12
2023-09-06T09:00:44.283Z,30.39
2023-09-06T09:03:12.072Z,30.25
2023-09-06T09:05:39.826Z,29.95
2023-09-06T09:08:08.778Z,28.30
2023-09-06T09:10:36.582Z,27.63
2023-09-06T09:13:04.456Z,28.00
2023-09-06T09:15:34.115Z,29.02
2023-09-06T09:18:10.946Z,28.49
2023-09-06T09:20:39.637Z,28.20
2023-09-06T09:23:13.679Z,28.71
2023-09-06T09:25:47.289Z,29.36
2023-09-06T09:28:15.430Z,30.01
2023-09-06T09:30:43.297Z,29.67
2023-09-06T09:33:11.187Z,30.14
2023-09-06T09:35:38.937Z,29.14
2023-09-06T09:38:06.548Z,28.22
2023-09-06T09:40:46.450Z,27.19
2023-09-06T09:43:18.051Z,28.92
2023-09-06T09:45:46.258Z,28.83
2023-09-06T09:48:15.574Z,28.20
2023-09-06T09:50:45.419Z,28.05
2023-09-06T09:55:49.121Z,25.20
2023-09-06T09:58:18.014Z,26.40
2023-09-06T10:00:46.581Z,26.37
2023-09-06T10:03:16.507Z,25.81
2023-09-06T10:05:45.520Z,25.50
2023-09-06T10:08:15.743Z,25.89
2023-09-06T10:10:43.993Z,25.68
2023-09-06T10:13:15.580Z,25.70
2023-09-06T10:15:44.825Z,24.90
2023-09-06T10:18:13.324Z,24.34
2023-09-06T10:20:42.034Z,24.62
2023-09-06T10:23:10.456Z,25.70
2023-09-06T10:25:42.080Z,25.81
2023-09-06T10:28:10.216Z,25.44
2023-09-06T10:30:42.112Z,25.81
2023-09-06T10:33:09.844Z,27.09
2023-09-06T10:35:43.248Z,26.64
2023-09-06T10:38:12.923Z,25.93
2023-09-06T10:41:05.980Z,25.67
2023-09-06T10:43:54.297Z,25.07
2023-09-06T10:46:28.423Z,26.22
2023-09-06T10:49:22.423Z,26.18
2023-09-06T10:51:58.449Z,25.72
2023-09-06T10:54:30.470Z,25.70
2023-09-06T10:56:58.397Z,25.76
2023-09-06T10:59:27.472Z,25.69
2023-09-06T11:02:27.023Z,25.30
2023-09-06T11:05:05.457Z,25.48
2023-09-06T11:07:49.823Z,25.42
2023-09-06T11:10:22.103Z,26.17
2023-09-06T11:12:49.876Z,27.01
2023-09-06T11:15:17.787Z,28.18
2023-09-06T11:17:48.074Z,27.38
2023-09-06T11:20:16.901Z,27.03
2023-09-06T11:22:57.020Z,27.76
2023-09-06T11:25:26.551Z,29.75
2023-09-06T11:27:56.114Z,30.19
2023-09-06T11:30:24.040Z,30.59
2023-09-06T11:32:54.360Z,29.93
2023-09-06T11:35:27.502Z,29.86
2023-09-06T11:37:58.408Z,29.86
2023-09-06T11:40:27.204Z,28.69
2023-09-06T11:42:57.976Z,29.88
2023-09-06T11:45:27.405Z,29.52
2023-09-06T11:48:00.195Z,30.47
2023-09-06T11:50:28.285Z,30.42
2023-09-06T11:52:59.378Z,31.35
2023-09-06T11:55:33.521Z,31.01
2023-09-06T11:58:01.895Z,30.14
2023-09-06T12:00:35.814Z,29.82
2023-09-06T12:03:15.145Z,28.48
2023-09-06T12:05:49.249Z,28.23
2023-09-06T12:08:19.866Z,29.23
2023-09-06T12:10:48.276Z,29.02
2023-09-06T12:13:16.173Z,30.17
2023-09-06T12:15:44.613Z,29.78
2023-09-06T12:18:14.699Z,30.97
2023-09-06T12:20:42.651Z,31.24
2023-09-06T12:23:10.341Z,30.01
2023-09-06T12:25:37.970Z,31.63
2023-09-06T12:28:05.930Z,31.22
2023-09-06T12:30:33.980Z,30.21
2023-09-06T12:33:01.721Z,31.24
2023-09-06T12:35:30.757Z,32.12
2023-09-06T12:37:58.344Z,32.41
2023-09-06T12:40:27.578Z,31.64
2023-09-06T12:42:55.496Z,30.56
2023-09-06T12:45:27.235Z,31.23
2023-09-06T12:47:55.602Z,29.61
2023-09-06T12:50:23.544Z,29.44
2023-09-06T12:52:53.081Z,30.11
2023-09-06T12:55:21.513Z,30.00
2023-09-06T12:57:51.469Z,29.05
2023-09-06T13:00:19.525Z,29.91
2023-09-06T13:02:47.214Z,29.89
2023-09-06T13:05:15.177Z,28.88
2023-09-06T13:07:43.077Z,29.13
2023-09-06T13:10:12.343Z,29.87
2023-09-06T13:12:41.960Z,29.79
2023-09-06T13:15:10.106Z,29.67
2023-09-06T13:17:38.204Z,30.33
2023-09-06T13:20:07.366Z,29.97
2023-09-06T13:22:37.032Z,30.03
2023-09-06T13:25:06.471Z,30.69
2023-09-06T13:27:36.333Z,30.54
2023-09-06T13:30:04.764Z,31.82
2023-09-06T13:32:32.730Z,32.11
2023-09-06T13:35:00.705Z,32.87
2023-09-06T13:37:28.388Z,32.69
2023-09-06T13:39:56.049Z,30.89
2023-09-06T13:42:23.758Z,30.80
2023-09-06T13:44:52.927Z,30.70
2023-09-06T13:47:20.558Z,30.21
2023-09-06T13:49:48.196Z,29.68
2023-09-06T13:52:16.838Z,30.14
2023-09-06T13:54:44.548Z,29.60
2023-09-06T13:57:12.280Z,30.18
2023-09-06T13:59:40.841Z,30.86
2023-09-06T14:02:10.027Z,30.71
2023-09-06T14:04:38.530Z,31.37
2023-09-06T14:07:06.256Z,31.25
2023-09-06T14:09:33.947Z,30.78
2023-09-06T14:12:01.572Z,30.96
2023-09-06T14:14:29.182Z,30.76
2023-09-06T14:16:56.918Z,31.58
2023-09-06T14:19:25.868Z,32.11
2023-09-06T14:21:53.463Z,32.24
2023-09-06T14:24:21.034Z,31.89
2023-09-06T14:26:48.670Z,32.39
2023-09-06T14:29:16.467Z,31.70
2023-09-06T14:31:44.304Z,31.61
2023-09-06T14:34:11.971Z,30.07
2023-09-06T14:36:41.004Z,31.29
2023-09-06T14:39:09.574Z,31.88
2023-09-06T14:41:37.656Z,32.04
2023-09-06T14:44:05.894Z,29.82
2023-09-06T14:46:33.611Z,29.77
2023-09-06T14:49:01.339Z,31.15
2023-09-06T14:51:29.035Z,31.08
2023-09-06T14:53:58.112Z,31.69
2023-09-06T14:56:26.084Z,31.95
2023-09-06T14:58:53.715Z,31.97
2023-09-06T15:01:21.393Z,32.45
2023-09-06T15:03:49.185Z,32.49
2023-09-06T15:06:16.896Z,32.63
2023-09-06T15:08:44.569Z,32.67
2023-09-06T15:11:13.567Z,31.05
2023-09-06T15:13:41.184Z,31.72
2023-09-06T15:16:08.900Z,32.81
2023-09-06T15:18:36.650Z,32.96
2023-09-06T15:21:05.141Z,32.26
2023-09-06T15:23:32.743Z,31.66
2023-09-06T15:26:00.575Z,31.75
2023-09-06T15:28:29.781Z,31.73
2023-09-06T15:30:57.794Z,31.31
2023-09-06T15:33:25.550Z,31.16
2023-09-06T15:35:53.205Z,32.18
2023-09-06T15:38:20.988Z,31.83
2023-09-06T15:40:48.589Z,31.23
2023-09-06T15:43:16.177Z,31.88
2023-09-06T15:45:45.303Z,31.47
2023-09-06T15:48:12.963Z,31.43
2023-09-06T15:50:40.738Z,31.63
2023-09-06T15:53:08.429Z,31.82
2023-09-06T15:55:36.083Z,32.11
2023-09-06T15:58:04.116Z,32.24
2023-09-06T16:00:33.166Z,31.48
2023-09-06T16:03:03.807Z,31.57
2023-09-06T16:05:31.805Z,30.91
2023-09-06T16:07:59.550Z,29.77
2023-09-06T16:10:27.822Z,30.76
2023-09-06T16:12:55.645Z,31.16
2023-09-06T16:15:23.351Z,30.57
2023-09-06T16:17:51.233Z,30.49
2023-09-06T16:20:20.526Z,30.45
2023-09-06T16:22:48.174Z,30.36
2023-09-06T16:25:15.852Z,30.25
2023-09-06T16:27:43.494Z,29.86
2023-09-06T16:30:11.858Z,30.20
2023-09-06T16:32:39.794Z,30.53
2023-09-06T16:35:08.035Z,30.12
2023-09-06T16:37:37.841Z,29.08
2023-09-06T16:40:06.591Z,28.87
2023-09-06T16:42:34.240Z,28.73
2023-09-06T16:45:01.860Z,28.19
2023-09-06T16:47:29.507Z,28.06
2023-09-06T16:49:57.282Z,27.82
2023-09-06T16:52:24.924Z,28.19
2023-09-06T16:54:54.017Z,28.49
2023-09-06T16:57:21.745Z,28.39
2023-09-06T16:59:49.335Z,28.67
2023-09-06T17:02:17.098Z,29.00
2023-09-06T17:04:44.724Z,28.68
2023-09-06T17:07:12.469Z,28.70
2023-09-06T17:09:40.245Z,28.49
2023-09-06T17:12:09.491Z,28.71
2023-09-06T17:14:37.173Z,28.97
2023-09-06T17:17:05.199Z,29.16
2023-09-06T17:19:32.835Z,28.62
2023-09-06T17:22:00.442Z,28.85
2023-09-06T17:24:28.148Z,28.77
2023-09-06T17:26:55.750Z,28.22
2023-09-06T17:29:24.703Z,28.19
2023-09-06T17:31:52.378Z,27.67
2023-09-06T17:34:20.032Z,26.78
2023-09-06T17:36:47.600Z,26.25
2023-09-06T17:39:15.243Z,26.37
2023-09-06T17:41:42.897Z,26.44
2023-09-06T17:44:10.736Z,26.42
2023-09-06T17:46:39.737Z,25.83
2023-09-06T17:49:07.540Z,25.70
2023-09-06T17:51:36.038Z,25.64
2023-09-06T17:54:03.815Z,25.47
2023-09-06T17:56:32.115Z,25.45
2023-09-06T17:58:59.754Z,25.35
2023-09-06T18:01:27.807Z,25.35
2023-09-06T18:03:57.237Z,25.25
2023-09-06T18:06:25.153Z,25.27
2023-09-06T18:08:54.151Z,25.34
2023-09-06T18:11:22.167Z,25.48
2023-09-06T18:13:50.314Z,25.51
2023-09-06T18:16:18.917Z,25.51
2023-09-06T18:18:47.142Z,25.47
2023-09-06T18:21:18.056Z,25.45
2023-09-06T18:23:45.806Z,25.23
2023-09-06T18:26:14.014Z,25.12
2023-09-06T18:28:41.806Z,25.01
2023-09-06T18:31:09.713Z,24.79
2023-09-06T18:33:38.397Z,24.83
2023-09-06T18:36:06.457Z,24.87
2023-09-06T18:38:35.475Z,24.91
2023-09-06T18:41:03.222Z,24.86
2023-09-06T18:43:31.030Z,24.90
2023-09-06T18:45:58.862Z,24.89
2023-09-06T18:48:26.577Z,24.97
2023-09-06T18:50:54.295Z,25.08
2023-09-06T18:53:22.091Z,24.99
2023-09-06T18:55:51.198Z,24.83
2023-09-06T18:58:19.009Z,24.80
2023-09-06T19:00:53.553Z,24.82
2023-09-06T19:03:21.282Z,24.83
2023-09-06T19:05:48.976Z,24.85
2023-09-06T19:08:17.141Z,24.93
2023-09-06T19:10:44.894Z,25.14
2023-09-06T19:13:13.886Z,25.40
2023-09-06T19:15:41.519Z,25.47
2023-09-06T19:18:09.196Z,25.57
2023-09-06T19:20:36.863Z,25.64
2023-09-06T19:23:04.670Z,25.74
2023-09-06T19:25:32.328Z,25.88
2023-09-06T19:27:59.926Z,25.74
2023-09-06T19:30:29.118Z,25.41
2023-09-06T19:32:56.770Z,25.28
2023-09-06T19:35:24.683Z,25.34
2023-09-06T19:37:52.331Z,25.65
2023-09-06T19:40:19.937Z,25.71
2023-09-06T19:42:47.552Z,26.16
2023-09-06T19:45:15.282Z,26.54
2023-09-06T19:47:44.312Z,26.58
2023-09-06T19:50:12.091Z,26.64
2023-09-06T19:52:39.749Z,26.90
2023-09-06T19:55:08.049Z,26.88
2023-09-06T19:57:35.689Z,26.88
2023-09-06T20:00:04.004Z,26.78
2023-09-06T20:02:31.881Z,26.26
2023-09-06T20:05:01.205Z,26.05
2023-09-06T20:07:30.905Z,26.61
2023-09-06T20:09:58.679Z,27.01
2023-09-06T20:12:26.294Z,26.45
2023-09-06T20:14:53.954Z,26.85
2023-09-06T20:17:21.802Z,26.79
2023-09-06T20:19:49.585Z,26.82
2023-09-06T20:22:18.573Z,26.49
2023-09-06T20:24:46.179Z,26.67
2023-09-06T20:27:13.779Z,26.12
2023-09-06T20:29:41.454Z,26.11
2023-09-06T20:32:09.119Z,26.68
2023-09-06T20:34:36.738Z,26.78
2023-09-06T20:37:04.647Z,27.02
2023-09-06T20:39:33.611Z,27.18
2023-09-06T20:42:01.261Z,27.10
2023-09-06T20:44:30.876Z,26.93
2023-09-06T20:47:00.513Z,27.08
2023-09-06T20:49:31.532Z,27.15
2023-09-06T20:51:59.233Z,27.00
2023-09-06T20:54:26.896Z,26.60
2023-09-06T20:56:55.915Z,26.23
2023-09-06T20:59:23.633Z,26.51
2023-09-06T21:01:51.976Z,26.79
2023-09-06T21:04:19.726Z,26.77
2023-09-06T21:06:47.378Z,26.42
2023-09-06T21:09:14.988Z,26.98
2023-09-06T21:11:43.745Z,27.04
2023-09-06T21:14:12.770Z,27.27
2023-09-06T21:16:40.380Z,26.55
2023-09-06T21:19:08.004Z,25.94
2023-09-06T21:21:35.580Z,26.02
2023-09-06T21:24:03.492Z,26.31
2023-09-06T21:26:31.188Z,26.30
2023-09-06T21:28:59.297Z,25.93
2023-09-06T21:31:28.280Z,26.22
2023-09-06T21:33:56.829Z,24.82
2023-09-06T21:36:24.545Z,24.06
2023-09-06T21:38:52.255Z,23.99
2023-09-06T21:41:19.889Z,24.71
2023-09-06T21:43:47.501Z,24.39
2023-09-06T21:46:15.155Z,25.00
2023-09-06T21:48:44.975Z,24.85
2023-09-06T21:51:14.598Z,24.34
2023-09-06T21:53:44.618Z,23.96
2023-09-06T21:56:14.446Z,23.73
2023-09-06T21:58:43.384Z,23.64
2023-09-06T22:01:11.030Z,23.90
2023-09-06T22:03:38.826Z,23.90
2023-09-06T22:06:07.870Z,23.80
2023-09-06T22:08:35.461Z,23.83
2023-09-06T22:11:03.053Z,23.67
2023-09-06T22:13:30.666Z,23.66
2023-09-06T22:15:58.290Z,23.65
2023-09-06T22:18:25.948Z,23.72
2023-09-06T22:20:53.590Z,23.72
2023-09-06T22:23:22.535Z,23.66
2023-09-06T22:25:57.721Z,23.58
2023-09-06T22:28:25.393Z,23.62
2023-09-06T22:30:53.143Z,23.71
2023-09-06T22:33:20.826Z,23.90
2023-09-06T22:35:48.422Z,23.97
2023-09-06T22:38:16.068Z,24.14
2023-09-06T22:40:46.237Z,24.16
2023-09-06T22:43:16.421Z,24.33
2023-09-06T22:45:44.232Z,24.06
2023-09-06T22:48:12.144Z,24.09
2023-09-06T22:50:39.810Z,23.85
2023-09-06T22:53:07.443Z,23.82
2023-09-06T22:55:35.256Z,23.80
2023-09-06T22:58:04.499Z,23.74
2023-09-06T23:00:34.059Z,23.92
2023-09-06T23:03:01.794Z,24.10
2023-09-06T23:05:29.566Z,24.24
2023-09-06T23:07:57.227Z,24.24
2023-09-06T23:10:24.978Z,24.44
2023-09-06T23:12:52.752Z,24.28
2023-09-06T23:15:21.699Z,24.34
2023-09-06T23:17:49.359Z,24.13
2023-09-06T23:20:17.255Z,24.11
2023-09-06T23:22:44.910Z,24.15
2023-09-06T23:25:12.810Z,24.25
2023-09-06T23:27:40.982Z,24.26
2023-09-06T23:30:09.560Z,24.28
2023-09-06T23:32:38.582Z,24.46
2023-09-06T23:35:07.011Z,24.26
2023-09-06T23:37:34.963Z,24.28
2023-09-06T23:40:02.915Z,24.19
2023-09-06T23:42:30.504Z,24.12
2023-09-06T23:44:58.122Z,24.00
2023-09-06T23:47:25.751Z,23.83
2023-09-06T23:49:54.710Z,23.93
2023-09-06T23:52:22.438Z,23.85
2023-09-06T23:54:50.066Z,23.78
2023-09-06T23:57:17.701Z,23.72
2023-09-06T23:59:45.303Z,23.90
